sensor_id;sensor_type;location;lat;lon;timestamp;P1;durP1;ratioP1;P2;durP2;ratioP2
11957;SDS011;6039;52.576;13.348;2023-07-24T00:01:37;3.97;;;2.43;;
11957;SDS011;6039;52.576;13.348;2023-07-24T00:06:42;3.70;;;2.30;;
11957;SDS011;6039;52.576;13.348;2023-07-24T00:11:46;3.63;;;2.30;;
11957;SDS011;6039;52.576;13.348;2023-07-24T00:16:52;2.57;;;2.00;;
11957;SDS011;6039;52.576;13.348;2023-07-24T00:21:56;2.87;;;2.13;;
11957;SDS011;6039;52.576;13.348;2023-07-24T00:27:00;2.97;;;2.10;;
11957;SDS011;6039;52.576;13.348;2023-07-24T00:32:08;1.97;;;1.77;;
11957;SDS011;6039;52.576;13.348;2023-07-24T00:37:12;3.40;;;1.97;;
11957;SDS011;6039;52.576;13.348;2023-07-24T00:42:16;3.10;;;1.90;;
11957;SDS011;6039;52.576;13.348;2023-07-24T00:47:22;3.07;;;2.03;;
11957;SDS011;6039;52.576;13.348;2023-07-24T00:52:27;2.90;;;2.00;;
11957;SDS011;6039;52.576;13.348;2023-07-24T00:57:31;3.17;;;2.20;;
11957;SDS011;6039;52.576;13.348;2023-07-24T01:02:38;4.13;;;2.10;;
11957;SDS011;6039;52.576;13.348;2023-07-24T01:07:42;3.97;;;2.20;;
11957;SDS011;6039;52.576;13.348;2023-07-24T01:12:49;3.73;;;2.20;;
11957;SDS011;6039;52.576;13.348;2023-07-24T01:18:03;2.83;;;2.20;;
11957;SDS011;6039;52.576;13.348;2023-07-24T01:23:13;3.23;;;2.20;;
11957;SDS011;6039;52.576;13.348;2023-07-24T01:28:26;2.47;;;1.80;;
11957;SDS011;6039;52.576;13.348;2023-07-24T01:33:30;3.07;;;2.00;;
11957;SDS011;6039;52.576;13.348;2023-07-24T01:38:35;3.10;;;2.00;;
11957;SDS011;6039;52.576;13.348;2023-07-24T01:43:42;3.63;;;2.30;;
11957;SDS011;6039;52.576;13.348;2023-07-24T01:48:47;3.00;;;2.00;;
11957;SDS011;6039;52.576;13.348;2023-07-24T01:53:52;3.27;;;2.37;;
11957;SDS011;6039;52.576;13.348;2023-07-24T01:58:59;2.20;;;1.80;;
11957;SDS011;6039;52.576;13.348;2023-07-24T02:04:03;3.03;;;2.07;;
11957;SDS011;6039;52.576;13.348;2023-07-24T02:09:07;2.17;;;1.73;;
11957;SDS011;6039;52.576;13.348;2023-07-24T02:14:14;2.50;;;1.77;;
11957;SDS011;6039;52.576;13.348;2023-07-24T02:19:21;4.37;;;2.00;;
11957;SDS011;6039;52.576;13.348;2023-07-24T02:24:25;3.80;;;1.63;;
11957;SDS011;6039;52.576;13.348;2023-07-24T02:29:32;3.13;;;2.03;;
11957;SDS011;6039;52.576;13.348;2023-07-24T02:34:36;2.37;;;1.60;;
11957;SDS011;6039;52.576;13.348;2023-07-24T02:39:40;2.80;;;2.03;;
11957;SDS011;6039;52.576;13.348;2023-07-24T02:44:47;3.50;;;2.27;;
11957;SDS011;6039;52.576;13.348;2023-07-24T02:49:53;2.83;;;2.17;;
11957;SDS011;6039;52.576;13.348;2023-07-24T02:54:57;3.07;;;2.03;;
11957;SDS011;6039;52.576;13.348;2023-07-24T03:00:04;3.10;;;2.30;;
11957;SDS011;6039;52.576;13.348;2023-07-24T03:05:09;2.53;;;2.00;;
11957;SDS011;6039;52.576;13.348;2023-07-24T03:10:14;2.97;;;2.07;;
11957;SDS011;6039;52.576;13.348;2023-07-24T03:15:20;2.80;;;2.10;;
11957;SDS011;6039;52.576;13.348;2023-07-24T03:20:25;2.27;;;1.90;;
11957;SDS011;6039;52.576;13.348;2023-07-24T03:25:29;3.77;;;1.80;;
11957;SDS011;6039;52.576;13.348;2023-07-24T03:30:38;3.13;;;1.97;;
11957;SDS011;6039;52.576;13.348;2023-07-24T03:35:42;2.87;;;1.97;;
11957;SDS011;6039;52.576;13.348;2023-07-24T03:40:46;2.53;;;1.80;;
11957;SDS011;6039;52.576;13.348;2023-07-24T03:45:52;2.30;;;1.60;;
11957;SDS011;6039;52.576;13.348;2023-07-24T03:51:00;2.33;;;1.63;;
11957;SDS011;6039;52.576;13.348;2023-07-24T03:56:04;2.33;;;1.73;;
11957;SDS011;6039;52.576;13.348;2023-07-24T04:01:10;2.43;;;1.60;;
11957;SDS011;6039;52.576;13.348;2023-07-24T04:06:14;2.37;;;1.50;;
11957;SDS011;6039;52.576;13.348;2023-07-24T04:11:18;2.23;;;1.40;;
11957;SDS011;6039;52.576;13.348;2023-07-24T04:16:25;1.70;;;1.40;;
11957;SDS011;6039;52.576;13.348;2023-07-24T04:21:29;1.93;;;1.30;;
11957;SDS011;6039;52.576;13.348;2023-07-24T04:26:33;1.80;;;1.40;;
11957;SDS011;6039;52.576;13.348;2023-07-24T04:31:40;1.67;;;1.30;;
11957;SDS011;6039;52.576;13.348;2023-07-24T04:36:44;2.57;;;1.47;;
11957;SDS011;6039;52.576;13.348;2023-07-24T04:41:48;1.93;;;1.60;;
11957;SDS011;6039;52.576;13.348;2023-07-24T04:46:54;2.83;;;1.53;;
11957;SDS011;6039;52.576;13.348;2023-07-24T04:51:58;1.60;;;1.27;;
11957;SDS011;6039;52.576;13.348;2023-07-24T04:57:03;2.10;;;1.70;;
11957;SDS011;6039;52.576;13.348;2023-07-24T05:02:10;2.40;;;1.60;;
11957;SDS011;6039;52.576;13.348;2023-07-24T05:07:14;3.93;;;1.70;;
11957;SDS011;6039;52.576;13.348;2023-07-24T05:12:18;1.83;;;1.53;;
11957;SDS011;6039;52.576;13.348;2023-07-24T05:17:24;3.80;;;1.83;;
11957;SDS011;6039;52.576;13.348;2023-07-24T05:22:28;3.00;;;2.37;;
11957;SDS011;6039;52.576;13.348;2023-07-24T05:27:33;2.30;;;1.50;;
11957;SDS011;6039;52.576;13.348;2023-07-24T05:32:40;2.40;;;1.53;;
11957;SDS011;6039;52.576;13.348;2023-07-24T05:37:44;1.67;;;1.20;;
11957;SDS011;6039;52.576;13.348;2023-07-24T05:42:48;1.53;;;1.37;;
11957;SDS011;6039;52.576;13.348;2023-07-24T05:47:55;2.03;;;1.20;;
11957;SDS011;6039;52.576;13.348;2023-07-24T05:52:59;1.67;;;1.40;;
11957;SDS011;6039;52.576;13.348;2023-07-24T05:58:03;2.00;;;1.50;;
11957;SDS011;6039;52.576;13.348;2023-07-24T06:03:09;1.83;;;1.23;;
11957;SDS011;6039;52.576;13.348;2023-07-24T06:08:13;1.30;;;1.20;;
11957;SDS011;6039;52.576;13.348;2023-07-24T06:13:18;2.00;;;1.30;;
11957;SDS011;6039;52.576;13.348;2023-07-24T06:18:25;1.97;;;1.30;;
11957;SDS011;6039;52.576;13.348;2023-07-24T06:23:29;2.03;;;1.50;;
11957;SDS011;6039;52.576;13.348;2023-07-24T06:28:32;1.67;;;1.37;;
11957;SDS011;6039;52.576;13.348;2023-07-24T06:33:39;2.60;;;1.60;;
11957;SDS011;6039;52.576;13.348;2023-07-24T06:38:43;1.97;;;1.57;;
11957;SDS011;6039;52.576;13.348;2023-07-24T06:43:47;2.43;;;1.73;;
11957;SDS011;6039;52.576;13.348;2023-07-24T06:48:54;2.07;;;1.60;;
11957;SDS011;6039;52.576;13.348;2023-07-24T06:53:58;2.80;;;2.10;;
11957;SDS011;6039;52.576;13.348;2023-07-24T06:59:02;2.80;;;1.67;;
11957;SDS011;6039;52.576;13.348;2023-07-24T07:04:09;2.80;;;1.60;;
11957;SDS011;6039;52.576;13.348;2023-07-24T07:09:13;2.67;;;1.60;;
11957;SDS011;6039;52.576;13.348;2023-07-24T07:14:17;2.17;;;1.70;;
11957;SDS011;6039;52.576;13.348;2023-07-24T07:19:23;1.83;;;1.40;;
11957;SDS011;6039;52.576;13.348;2023-07-24T07:24:27;2.43;;;1.60;;
11957;SDS011;6039;52.576;13.348;2023-07-24T07:29:31;2.10;;;1.60;;
11957;SDS011;6039;52.576;13.348;2023-07-24T07:34:38;1.50;;;1.40;;
11957;SDS011;6039;52.576;13.348;2023-07-24T07:39:42;2.17;;;1.42;;
11957;SDS011;6039;52.576;13.348;2023-07-24T07:44:46;1.65;;;1.50;;
11957;SDS011;6039;52.576;13.348;2023-07-24T07:49:53;1.73;;;1.40;;
11957;SDS011;6039;52.576;13.348;2023-07-24T07:54:57;2.20;;;1.93;;
11957;SDS011;6039;52.576;13.348;2023-07-24T08:00:00;1.98;;;1.60;;
11957;SDS011;6039;52.576;13.348;2023-07-24T08:05:09;1.63;;;1.40;;
11957;SDS011;6039;52.576;13.348;2023-07-24T08:10:13;1.67;;;1.50;;
11957;SDS011;6039;52.576;13.348;2023-07-24T08:15:17;1.40;;;1.30;;
11957;SDS011;6039;52.576;13.348;2023-07-24T08:20:24;1.73;;;1.20;;
11957;SDS011;6039;52.576;13.348;2023-07-24T08:25:28;1.83;;;1.33;;
11957;SDS011;6039;52.576;13.348;2023-07-24T08:30:32;2.28;;;1.50;;
11957;SDS011;6039;52.576;13.348;2023-07-24T08:35:39;1.90;;;1.57;;
11957;SDS011;6039;52.576;13.348;2023-07-24T08:40:42;2.20;;;1.80;;
11957;SDS011;6039;52.576;13.348;2023-07-24T08:45:46;1.60;;;1.40;;
11957;SDS011;6039;52.576;13.348;2023-07-24T08:50:53;2.67;;;1.73;;
11957;SDS011;6039;52.576;13.348;2023-07-24T08:55:58;2.38;;;1.50;;
11957;SDS011;6039;52.576;13.348;2023-07-24T09:01:03;2.42;;;1.52;;
11957;SDS011;6039;52.576;13.348;2023-07-24T09:06:11;1.67;;;1.58;;
11957;SDS011;6039;52.576;13.348;2023-07-24T09:11:15;1.90;;;1.40;;
11957;SDS011;6039;52.576;13.348;2023-07-24T09:16:22;1.63;;;1.50;;
11957;SDS011;6039;52.576;13.348;2023-07-24T09:21:29;2.22;;;1.30;;
11957;SDS011;6039;52.576;13.348;2023-07-24T09:26:34;2.15;;;1.58;;
11957;SDS011;6039;52.576;13.348;2023-07-24T09:31:38;1.90;;;1.60;;
11957;SDS011;6039;52.576;13.348;2023-07-24T09:36:45;1.92;;;1.50;;
11957;SDS011;6039;52.576;13.348;2023-07-24T09:41:50;2.10;;;1.63;;
11957;SDS011;6039;52.576;13.348;2023-07-24T09:46:55;1.77;;;1.40;;
11957;SDS011;6039;52.576;13.348;2023-07-24T09:52:02;1.55;;;1.45;;
11957;SDS011;6039;52.576;13.348;2023-07-24T09:57:09;2.45;;;1.60;;
11957;SDS011;6039;52.576;13.348;2023-07-24T10:02:13;1.77;;;1.50;;
11957;SDS011;6039;52.576;13.348;2023-07-24T10:07:20;1.90;;;1.65;;
11957;SDS011;6039;52.576;13.348;2023-07-24T10:12:24;2.35;;;1.42;;
11957;SDS011;6039;52.576;13.348;2023-07-24T10:17:34;2.13;;;1.58;;
11957;SDS011;6039;52.576;13.348;2023-07-24T10:22:42;5.47;;;1.95;;
11957;SDS011;6039;52.576;13.348;2023-07-24T10:27:46;2.00;;;1.70;;
11957;SDS011;6039;52.576;13.348;2023-07-24T10:32:52;2.10;;;1.90;;
11957;SDS011;6039;52.576;13.348;2023-07-24T10:38:01;2.30;;;1.63;;
11957;SDS011;6039;52.576;13.348;2023-07-24T10:43:06;3.55;;;2.15;;
11957;SDS011;6039;52.576;13.348;2023-07-24T10:48:10;3.28;;;2.08;;
11957;SDS011;6039;52.576;13.348;2023-07-24T10:53:17;3.30;;;2.40;;
11957;SDS011;6039;52.576;13.348;2023-07-24T10:58:23;3.17;;;2.35;;
11957;SDS011;6039;52.576;13.348;2023-07-24T11:03:28;3.53;;;2.57;;
11957;SDS011;6039;52.576;13.348;2023-07-24T11:08:35;3.35;;;2.53;;
11957;SDS011;6039;52.576;13.348;2023-07-24T11:13:40;3.65;;;2.40;;
11957;SDS011;6039;52.576;13.348;2023-07-24T11:18:44;3.88;;;2.60;;
11957;SDS011;6039;52.576;13.348;2023-07-24T11:23:53;3.90;;;2.60;;
11957;SDS011;6039;52.576;13.348;2023-07-24T11:28:57;3.58;;;2.40;;
11957;SDS011;6039;52.576;13.348;2023-07-24T11:34:01;3.80;;;2.90;;
11957;SDS011;6039;52.576;13.348;2023-07-24T11:39:08;3.03;;;2.37;;
11957;SDS011;6039;52.576;13.348;2023-07-24T11:44:12;4.78;;;2.72;;
11957;SDS011;6039;52.576;13.348;2023-07-24T11:49:19;3.42;;;2.65;;
11957;SDS011;6039;52.576;13.348;2023-07-24T11:54:26;3.58;;;2.67;;
11957;SDS011;6039;52.576;13.348;2023-07-24T11:59:36;3.88;;;3.00;;
11957;SDS011;6039;52.576;13.348;2023-07-24T12:04:41;4.55;;;2.97;;
11957;SDS011;6039;52.576;13.348;2023-07-24T12:09:52;4.07;;;2.60;;
11957;SDS011;6039;52.576;13.348;2023-07-24T12:14:56;4.13;;;2.63;;
11957;SDS011;6039;52.576;13.348;2023-07-24T12:20:00;4.30;;;2.80;;
11957;SDS011;6039;52.576;13.348;2023-07-24T12:25:08;5.10;;;3.03;;
11957;SDS011;6039;52.576;13.348;2023-07-24T12:30:12;5.50;;;2.93;;
11957;SDS011;6039;52.576;13.348;2023-07-24T12:35:16;3.63;;;2.50;;
11957;SDS011;6039;52.576;13.348;2023-07-24T12:40:23;3.73;;;2.53;;
11957;SDS011;6039;52.576;13.348;2023-07-24T12:45:27;3.57;;;2.43;;
11957;SDS011;6039;52.576;13.348;2023-07-24T12:50:31;4.17;;;2.80;;
11957;SDS011;6039;52.576;13.348;2023-07-24T12:55:38;3.87;;;2.67;;
11957;SDS011;6039;52.576;13.348;2023-07-24T13:00:42;5.45;;;2.33;;
11957;SDS011;6039;52.576;13.348;2023-07-24T13:05:46;4.73;;;2.60;;
11957;SDS011;6039;52.576;13.348;2023-07-24T13:10:52;3.27;;;2.50;;
11957;SDS011;6039;52.576;13.348;2023-07-24T13:15:56;4.03;;;2.45;;
11957;SDS011;6039;52.576;13.348;2023-07-24T13:21:00;3.83;;;2.60;;
11957;SDS011;6039;52.576;13.348;2023-07-24T13:26:09;3.97;;;2.40;;
11957;SDS011;6039;52.576;13.348;2023-07-24T13:31:13;3.23;;;2.20;;
11957;SDS011;6039;52.576;13.348;2023-07-24T13:36:18;2.65;;;1.98;;
11957;SDS011;6039;52.576;13.348;2023-07-24T13:41:24;4.25;;;2.35;;
11957;SDS011;6039;52.576;13.348;2023-07-24T13:46:28;3.47;;;2.17;;
11957;SDS011;6039;52.576;13.348;2023-07-24T13:51:32;3.83;;;2.20;;
11957;SDS011;6039;52.576;13.348;2023-07-24T13:56:39;3.10;;;1.90;;
11957;SDS011;6039;52.576;13.348;2023-07-24T14:01:43;3.28;;;2.00;;
11957;SDS011;6039;52.576;13.348;2023-07-24T14:06:47;2.72;;;2.33;;
11957;SDS011;6039;52.576;13.348;2023-07-24T14:11:53;3.45;;;2.10;;
11957;SDS011;6039;52.576;13.348;2023-07-24T14:16:57;3.30;;;2.00;;
11957;SDS011;6039;52.576;13.348;2023-07-24T14:22:01;2.90;;;1.98;;
11957;SDS011;6039;52.576;13.348;2023-07-24T14:27:08;4.73;;;3.47;;
11957;SDS011;6039;52.576;13.348;2023-07-24T14:32:12;2.83;;;2.13;;
11957;SDS011;6039;52.576;13.348;2023-07-24T14:37:16;2.77;;;1.93;;
11957;SDS011;6039;52.576;13.348;2023-07-24T14:42:22;6.43;;;2.00;;
11957;SDS011;6039;52.576;13.348;2023-07-24T14:47:27;2.50;;;2.00;;
11957;SDS011;6039;52.576;13.348;2023-07-24T14:52:32;2.77;;;2.10;;
11957;SDS011;6039;52.576;13.348;2023-07-24T14:57:38;4.63;;;2.23;;
11957;SDS011;6039;52.576;13.348;2023-07-24T15:02:42;3.00;;;2.20;;
11957;SDS011;6039;52.576;13.348;2023-07-24T15:07:46;2.87;;;2.10;;
11957;SDS011;6039;52.576;13.348;2023-07-24T15:12:52;3.70;;;2.17;;
11957;SDS011;6039;52.576;13.348;2023-07-24T15:17:58;3.30;;;2.27;;
11957;SDS011;6039;52.576;13.348;2023-07-24T15:23:02;3.80;;;2.50;;
11957;SDS011;6039;52.576;13.348;2023-07-24T15:28:09;3.13;;;2.60;;
11957;SDS011;6039;52.576;13.348;2023-07-24T15:33:13;2.65;;;2.10;;
11957;SDS011;6039;52.576;13.348;2023-07-24T15:38:17;2.93;;;2.17;;
11957;SDS011;6039;52.576;13.348;2023-07-24T15:43:23;3.00;;;2.10;;
11957;SDS011;6039;52.576;13.348;2023-07-24T15:48:28;4.22;;;2.03;;
11957;SDS011;6039;52.576;13.348;2023-07-24T15:53:31;2.70;;;2.10;;
11957;SDS011;6039;52.576;13.348;2023-07-24T15:58:38;4.43;;;2.78;;
11957;SDS011;6039;52.576;13.348;2023-07-24T16:03:43;3.72;;;2.33;;
11957;SDS011;6039;52.576;13.348;2023-07-24T16:08:47;3.27;;;2.30;;
11957;SDS011;6039;52.576;13.348;2023-07-24T16:13:53;3.45;;;2.40;;
11957;SDS011;6039;52.576;13.348;2023-07-24T16:19:09;2.90;;;2.45;;
11957;SDS011;6039;52.576;13.348;2023-07-24T16:24:14;2.92;;;2.40;;
11957;SDS011;6039;52.576;13.348;2023-07-24T16:29:22;4.55;;;2.10;;
11957;SDS011;6039;52.576;13.348;2023-07-24T16:34:26;2.67;;;2.10;;
11957;SDS011;6039;52.576;13.348;2023-07-24T16:39:31;4.33;;;2.40;;
11957;SDS011;6039;52.576;13.348;2023-07-24T16:44:38;2.58;;;2.15;;
11957;SDS011;6039;52.576;13.348;2023-07-24T16:49:42;1.80;;;1.60;;
11957;SDS011;6039;52.576;13.348;2023-07-24T16:54:46;1.97;;;1.60;;
11957;SDS011;6039;52.576;13.348;2023-07-24T16:59:53;1.63;;;1.40;;
11957;SDS011;6039;52.576;13.348;2023-07-24T17:04:57;2.17;;;1.50;;
11957;SDS011;6039;52.576;13.348;2023-07-24T17:10:01;1.90;;;1.30;;
11957;SDS011;6039;52.576;13.348;2023-07-24T17:15:08;2.40;;;1.47;;
11957;SDS011;6039;52.576;13.348;2023-07-24T17:20:13;1.40;;;1.30;;
11957;SDS011;6039;52.576;13.348;2023-07-24T17:25:17;1.80;;;1.50;;
11957;SDS011;6039;52.576;13.348;2023-07-24T17:30:24;2.00;;;1.43;;
11957;SDS011;6039;52.576;13.348;2023-07-24T17:35:28;1.47;;;1.13;;
11957;SDS011;6039;52.576;13.348;2023-07-24T17:40:32;1.93;;;1.20;;
11957;SDS011;6039;52.576;13.348;2023-07-24T17:45:39;3.30;;;1.47;;
11957;SDS011;6039;52.576;13.348;2023-07-24T17:50:43;3.40;;;1.93;;
11957;SDS011;6039;52.576;13.348;2023-07-24T17:55:48;1.90;;;1.50;;
11957;SDS011;6039;52.576;13.348;2023-07-24T18:00:54;3.50;;;2.43;;
11957;SDS011;6039;52.576;13.348;2023-07-24T18:05:58;4.57;;;2.80;;
11957;SDS011;6039;52.576;13.348;2023-07-24T18:11:02;3.07;;;2.40;;
11957;SDS011;6039;52.576;13.348;2023-07-24T18:16:09;3.37;;;2.10;;
11957;SDS011;6039;52.576;13.348;2023-07-24T18:21:16;3.10;;;2.40;;
11957;SDS011;6039;52.576;13.348;2023-07-24T18:26:20;4.53;;;2.60;;
11957;SDS011;6039;52.576;13.348;2023-07-24T18:31:26;3.30;;;2.57;;
11957;SDS011;6039;52.576;13.348;2023-07-24T18:36:30;3.47;;;2.50;;
11957;SDS011;6039;52.576;13.348;2023-07-24T18:41:34;3.57;;;2.60;;
11957;SDS011;6039;52.576;13.348;2023-07-24T18:46:41;3.43;;;2.70;;
11957;SDS011;6039;52.576;13.348;2023-07-24T18:51:45;3.47;;;2.20;;
11957;SDS011;6039;52.576;13.348;2023-07-24T18:56:52;4.43;;;2.73;;
11957;SDS011;6039;52.576;13.348;2023-07-24T19:01:59;3.67;;;2.63;;
11957;SDS011;6039;52.576;13.348;2023-07-24T19:07:03;4.93;;;2.57;;
11957;SDS011;6039;52.576;13.348;2023-07-24T19:12:10;4.30;;;3.10;;
11957;SDS011;6039;52.576;13.348;2023-07-24T19:17:19;7.23;;;3.30;;
11957;SDS011;6039;52.576;13.348;2023-07-24T19:22:22;5.37;;;3.30;;
11957;SDS011;6039;52.576;13.348;2023-07-24T19:27:27;3.60;;;2.60;;
11957;SDS011;6039;52.576;13.348;2023-07-24T19:32:34;4.20;;;3.47;;
11957;SDS011;6039;52.576;13.348;2023-07-24T19:37:38;4.13;;;3.33;;
11957;SDS011;6039;52.576;13.348;2023-07-24T19:42:43;5.63;;;3.23;;
11957;SDS011;6039;52.576;13.348;2023-07-24T19:47:50;6.13;;;3.10;;
11957;SDS011;6039;52.576;13.348;2023-07-24T19:52:54;6.10;;;3.40;;
11957;SDS011;6039;52.576;13.348;2023-07-24T19:57:58;5.67;;;3.20;;
11957;SDS011;6039;52.576;13.348;2023-07-24T20:03:05;4.40;;;3.27;;
11957;SDS011;6039;52.576;13.348;2023-07-24T20:08:09;3.93;;;2.90;;
11957;SDS011;6039;52.576;13.348;2023-07-24T20:13:13;3.47;;;2.77;;
11957;SDS011;6039;52.576;13.348;2023-07-24T20:18:19;3.53;;;2.73;;
11957;SDS011;6039;52.576;13.348;2023-07-24T20:23:23;3.23;;;2.47;;
11957;SDS011;6039;52.576;13.348;2023-07-24T20:28:27;4.30;;;2.87;;
11957;SDS011;6039;52.576;13.348;2023-07-24T20:33:34;3.67;;;2.83;;
11957;SDS011;6039;52.576;13.348;2023-07-24T20:38:38;3.30;;;2.70;;
11957;SDS011;6039;52.576;13.348;2023-07-24T20:43:42;4.43;;;2.73;;
11957;SDS011;6039;52.576;13.348;2023-07-24T20:48:48;3.73;;;2.90;;
11957;SDS011;6039;52.576;13.348;2023-07-24T20:53:52;4.77;;;3.40;;
11957;SDS011;6039;52.576;13.348;2023-07-24T20:58:58;5.00;;;3.70;;
11957;SDS011;6039;52.576;13.348;2023-07-24T21:04:05;5.03;;;3.50;;
11957;SDS011;6039;52.576;13.348;2023-07-24T21:09:09;3.97;;;3.30;;
11957;SDS011;6039;52.576;13.348;2023-07-24T21:14:13;5.03;;;3.60;;
11957;SDS011;6039;52.576;13.348;2023-07-24T21:19:20;6.57;;;3.70;;
11957;SDS011;6039;52.576;13.348;2023-07-24T21:24:24;5.93;;;3.70;;
11957;SDS011;6039;52.576;13.348;2023-07-24T21:29:28;5.73;;;3.83;;
11957;SDS011;6039;52.576;13.348;2023-07-24T21:34:35;5.13;;;3.40;;
11957;SDS011;6039;52.576;13.348;2023-07-24T21:39:39;6.90;;;3.53;;
11957;SDS011;6039;52.576;13.348;2023-07-24T21:44:43;4.70;;;3.33;;
11957;SDS011;6039;52.576;13.348;2023-07-24T21:49:50;4.40;;;2.87;;
11957;SDS011;6039;52.576;13.348;2023-07-24T21:54:54;3.93;;;2.93;;
11957;SDS011;6039;52.576;13.348;2023-07-24T21:59:58;4.80;;;3.13;;
11957;SDS011;6039;52.576;13.348;2023-07-24T22:05:06;4.00;;;2.83;;
11957;SDS011;6039;52.576;13.348;2023-07-24T22:10:10;4.00;;;2.70;;
11957;SDS011;6039;52.576;13.348;2023-07-24T22:15:14;3.23;;;2.30;;
11957;SDS011;6039;52.576;13.348;2023-07-24T22:20:21;3.57;;;2.60;;
11957;SDS011;6039;52.576;13.348;2023-07-24T22:25:27;4.07;;;2.73;;
11957;SDS011;6039;52.576;13.348;2023-07-24T22:30:31;5.73;;;2.97;;
11957;SDS011;6039;52.576;13.348;2023-07-24T22:35:38;4.23;;;3.00;;
11957;SDS011;6039;52.576;13.348;2023-07-24T22:40:42;2.83;;;2.53;;
11957;SDS011;6039;52.576;13.348;2023-07-24T22:45:46;4.50;;;2.97;;
11957;SDS011;6039;52.576;13.348;2023-07-24T22:50:53;3.97;;;2.70;;
11957;SDS011;6039;52.576;13.348;2023-07-24T22:55:57;3.10;;;2.50;;
11957;SDS011;6039;52.576;13.348;2023-07-24T23:01:01;4.57;;;3.10;;
11957;SDS011;6039;52.576;13.348;2023-07-24T23:06:07;4.43;;;2.90;;
11957;SDS011;6039;52.576;13.348;2023-07-24T23:11:11;4.27;;;2.60;;
11957;SDS011;6039;52.576;13.348;2023-07-24T23:16:15;4.57;;;3.10;;
11957;SDS011;6039;52.576;13.348;2023-07-24T23:21:22;5.03;;;2.90;;
11957;SDS011;6039;52.576;13.348;2023-07-24T23:26:26;4.33;;;2.80;;
11957;SDS011;6039;52.576;13.348;2023-07-24T23:31:30;4.33;;;2.63;;
11957;SDS011;6039;52.576;13.348;2023-07-24T23:36:36;4.10;;;3.10;;
11957;SDS011;6039;52.576;13.348;2023-07-24T23:41:40;3.67;;;2.70;;
11957;SDS011;6039;52.576;13.348;2023-07-24T23:46:44;3.40;;;2.70;;
11957;SDS011;6039;52.576;13.348;2023-07-24T23:51:51;4.27;;;2.90;;
11957;SDS011;6039;52.576;13.348;2023-07-24T23:56:55;5.30;;;2.90;;
